SWA2314 KDEN-KSLC
Flight info
| Callsign | SWA2314 |
|---|---|
| Flight time | N/A |
| Altitude | 30000 |
| Route | ZIMMR4 CHNGY EKR PITTT2 |
| Aircraft | B738/M-SDE2E3FGHIRWXY/LB1 |
Departure
| Time | 2026-05-05 02:39 |
|---|---|
| Airport | Denver International Airport (KDEN) |
Arrival
| Time | N/A |
|---|---|
| Airport | Salt Lake City International Airport (KSLC) |
| Time | Latitude | Longitude | Altitude | Speed | Heading |
|---|---|---|---|---|---|
| 2026-05-05 02:17 | 39.86263 | -104.67736 | 5386 ft | 0 kts | 2° |
| 2026-05-05 02:27 | 39.86262 | -104.67736 | 5385 ft | 2 kts | 2° |
| 2026-05-05 02:28 | 39.86237 | -104.67737 | 5385 ft | 4 kts | 360° |
| 2026-05-05 02:28 | 39.86210 | -104.67736 | 5382 ft | 4 kts | 357° |
| 2026-05-05 02:28 | 39.86205 | -104.67736 | 5384 ft | 0 kts | 357° |
| 2026-05-05 02:33 | 39.86214 | -104.67740 | 5385 ft | 2 kts | 333° |
| 2026-05-05 02:33 | 39.86217 | -104.67758 | 5385 ft | 2 kts | 263° |
| 2026-05-05 02:33 | 39.86192 | -104.67771 | 5385 ft | 7 kts | 191° |
| 2026-05-05 02:33 | 39.86116 | -104.67784 | 5385 ft | 13 kts | 186° |
| 2026-05-05 02:34 | 39.86030 | -104.67807 | 5385 ft | 13 kts | 210° |
| 2026-05-05 02:34 | 39.86011 | -104.67911 | 5386 ft | 12 kts | 270° |
| 2026-05-05 02:34 | 39.86012 | -104.68021 | 5385 ft | 12 kts | 269° |
| 2026-05-05 02:34 | 39.86012 | -104.68128 | 5385 ft | 12 kts | 271° |
| 2026-05-05 02:35 | 39.86024 | -104.68230 | 5381 ft | 12 kts | 278° |
| 2026-05-05 02:35 | 39.86025 | -104.68363 | 5370 ft | 15 kts | 250° |
| 2026-05-05 02:35 | 39.85924 | -104.68397 | 5364 ft | 20 kts | 178° |
| 2026-05-05 02:35 | 39.85781 | -104.68393 | 5368 ft | 20 kts | 181° |
| 2026-05-05 02:36 | 39.85643 | -104.68398 | 5369 ft | 20 kts | 181° |
| 2026-05-05 02:36 | 39.85509 | -104.68402 | 5371 ft | 19 kts | 181° |
| 2026-05-05 02:36 | 39.85379 | -104.68402 | 5374 ft | 18 kts | 180° |
| 2026-05-05 02:36 | 39.85254 | -104.68404 | 5375 ft | 17 kts | 184° |
| 2026-05-05 02:37 | 39.85205 | -104.68520 | 5370 ft | 21 kts | 270° |
| 2026-05-05 02:37 | 39.85202 | -104.68764 | 5361 ft | 29 kts | 267° |
| 2026-05-05 02:37 | 39.85193 | -104.69033 | 5351 ft | 30 kts | 268° |
| 2026-05-05 02:37 | 39.85193 | -104.69291 | 5342 ft | 28 kts | 271° |
| 2026-05-05 02:38 | 39.85197 | -104.69529 | 5334 ft | 20 kts | 272° |
| 2026-05-05 02:38 | 39.85206 | -104.69636 | 5337 ft | 9 kts | 295° |
| 2026-05-05 02:38 | 39.85261 | -104.69660 | 5334 ft | 8 kts | 360° |
| 2026-05-05 02:38 | 39.85349 | -104.69660 | 5335 ft | 32 kts | 0° |
| 2026-05-05 02:39 | 39.85803 | -104.69640 | 5339 ft | 98 kts | 1° |
| 2026-05-05 02:39 | 39.86685 | -104.69626 | 5334 ft | 153 kts | 3° |
| 2026-05-05 02:39 | 39.87871 | -104.69775 | 5565 ft | 182 kts | 355° |
| 2026-05-05 02:39 | 39.89122 | -104.70077 | 6284 ft | 186 kts | 349° |
| 2026-05-05 02:40 | 39.90309 | -104.70833 | 6684 ft | 194 kts | 324° |
| 2026-05-05 02:40 | 39.91181 | -104.72211 | 6890 ft | 211 kts | 292° |
| 2026-05-05 02:40 | 39.91412 | -104.74164 | 7052 ft | 226 kts | 280° |
| 2026-05-05 02:40 | 39.91597 | -104.76257 | 7112 ft | 239 kts | 280° |
| 2026-05-05 02:41 | 39.91810 | -104.78442 | 7305 ft | 249 kts | 282° |
| 2026-05-05 02:41 | 39.92055 | -104.80719 | 7650 ft | 258 kts | 282° |
| 2026-05-05 02:41 | 39.92323 | -104.83044 | 8187 ft | 260 kts | 282° |
| 2026-05-05 02:41 | 39.92610 | -104.85457 | 8430 ft | 280 kts | 281° |
| 2026-05-05 02:42 | 39.92921 | -104.88025 | 8952 ft | 291 kts | 280° |
| 2026-05-05 02:42 | 39.93234 | -104.90647 | 9614 ft | 295 kts | 278° |
| 2026-05-05 02:42 | 39.93360 | -104.93316 | 10360 ft | 293 kts | 271° |
| 2026-05-05 02:42 | 39.93389 | -104.95922 | 11450 ft | 285 kts | 271° |
| 2026-05-05 02:43 | 39.93424 | -104.98512 | 12262 ft | 288 kts | 271° |
| 2026-05-05 02:43 | 39.93472 | -105.01120 | 13203 ft | 287 kts | 271° |
| 2026-05-05 02:43 | 39.93524 | -105.03711 | 14132 ft | 286 kts | 272° |
| 2026-05-05 02:43 | 39.93581 | -105.06314 | 14928 ft | 288 kts | 272° |
| 2026-05-05 02:44 | 39.93680 | -105.10715 | 16220 ft | 293 kts | 271° |
| 2026-05-05 02:44 | 39.93918 | -105.21515 | 19168 ft | 304 kts | 271° |
| 2026-05-05 02:44 | 39.94744 | -105.32729 | 21641 ft | 320 kts | 276° |